ZWWW/URC METAR and TAF weather

Enter ICAO airport designator
Station Type Date Time Source
ZWWW METAR 2020/07/06 08:00 UTC NOAA

ZWWW 060800Z 31006MPS 9999 FEW040TCU SCT046 23/13 Q1008 NOSIG


Station Type Date Time Source
ZWWW Decoded METAR 2020/07/06 08:00 UTC NOAA

Urum-Qi / Diwopu, China (ZWWW) 43-54N 087-28E
Jul 06, 2020 - 04:00 AM EDT / 2020.07.06 0800 UTC
Wind: from the NW (310 degrees) at 13 MPH (12 KT):0
Visibility: greater than 7 mile(s):0
Sky conditions: partly cloudy
Weather: Towering cumulus clouds observed
Temperature: 73 F (23 C)
Dew Point: 55 F (13 C)
Relative Humidity: 53%
Pressure (altimeter): 29.77 in. Hg (1008 hPa)
ob: ZWWW 060800Z 31006MPS 9999 FEW040TCU SCT046 23/13 Q1008 NOSIG
cycle: 8

Station Type Date Time Source
ZWWW TAF 2020/07/06 06:24 UTC NOAA

TAF
AMD TAF
AMD ZWWW 060618Z 0606/0706 32006G12MPS 9999 -SHRA FEW040CB BKN040 TX26/0706Z TN20/0623Z
BECMG 0613/0614 18004MPS CAVOK
BECMG 0702/0703 36004MPS

Example: see airport list